sensor_id;sensor_type;location;lat;lon;timestamp;P1;durP1;ratioP1;P2;durP2;ratioP2
71629;SDS011;59479;51.902;8.212;2022-12-20T00:01:05;4.90;;;3.13;;
71629;SDS011;59479;51.902;8.212;2022-12-20T00:03:34;5.03;;;2.85;;
71629;SDS011;59479;51.902;8.212;2022-12-20T00:06:00;7.05;;;3.40;;
71629;SDS011;59479;51.902;8.212;2022-12-20T00:08:25;5.70;;;3.13;;
71629;SDS011;59479;51.902;8.212;2022-12-20T00:10:50;6.50;;;3.00;;
71629;SDS011;59479;51.902;8.212;2022-12-20T00:13:16;6.50;;;3.50;;
71629;SDS011;59479;51.902;8.212;2022-12-20T00:15:41;6.03;;;2.83;;
71629;SDS011;59479;51.902;8.212;2022-12-20T00:18:06;6.80;;;2.97;;
71629;SDS011;59479;51.902;8.212;2022-12-20T00:20:32;7.75;;;3.38;;
71629;SDS011;59479;51.902;8.212;2022-12-20T00:22:58;6.23;;;3.27;;
71629;SDS011;59479;51.902;8.212;2022-12-20T00:25:23;5.57;;;2.80;;
71629;SDS011;59479;51.902;8.212;2022-12-20T00:27:48;7.07;;;3.20;;
71629;SDS011;59479;51.902;8.212;2022-12-20T00:30:14;6.53;;;3.30;;
71629;SDS011;59479;51.902;8.212;2022-12-20T00:32:40;7.53;;;3.30;;
71629;SDS011;59479;51.902;8.212;2022-12-20T00:35:05;5.05;;;2.75;;
71629;SDS011;59479;51.902;8.212;2022-12-20T00:37:31;6.87;;;3.40;;
71629;SDS011;59479;51.902;8.212;2022-12-20T00:39:57;7.77;;;3.30;;
71629;SDS011;59479;51.902;8.212;2022-12-20T00:42:22;5.30;;;2.60;;
71629;SDS011;59479;51.902;8.212;2022-12-20T00:44:47;5.43;;;3.05;;
71629;SDS011;59479;51.902;8.212;2022-12-20T00:47:13;4.70;;;2.57;;
71629;SDS011;59479;51.902;8.212;2022-12-20T00:49:39;7.00;;;3.00;;
71629;SDS011;59479;51.902;8.212;2022-12-20T00:52:05;5.70;;;2.97;;
71629;SDS011;59479;51.902;8.212;2022-12-20T00:54:30;7.72;;;3.40;;
71629;SDS011;59479;51.902;8.212;2022-12-20T00:56:56;6.23;;;2.50;;
71629;SDS011;59479;51.902;8.212;2022-12-20T00:59:21;5.17;;;2.73;;
71629;SDS011;59479;51.902;8.212;2022-12-20T01:01:46;7.13;;;3.40;;
71629;SDS011;59479;51.902;8.212;2022-12-20T01:04:12;6.63;;;3.10;;
71629;SDS011;59479;51.902;8.212;2022-12-20T01:06:37;5.13;;;2.65;;
71629;SDS011;59479;51.902;8.212;2022-12-20T01:09:03;5.45;;;2.85;;
71629;SDS011;59479;51.902;8.212;2022-12-20T01:11:29;5.03;;;3.00;;
71629;SDS011;59479;51.902;8.212;2022-12-20T01:13:58;5.47;;;3.08;;
71629;SDS011;59479;51.902;8.212;2022-12-20T01:16:30;4.80;;;2.90;;
71629;SDS011;59479;51.902;8.212;2022-12-20T01:18:59;7.40;;;3.25;;
71629;SDS011;59479;51.902;8.212;2022-12-20T01:21:25;6.27;;;2.90;;
71629;SDS011;59479;51.902;8.212;2022-12-20T01:23:51;5.47;;;2.80;;
71629;SDS011;59479;51.902;8.212;2022-12-20T01:26:18;6.67;;;2.90;;
71629;SDS011;59479;51.902;8.212;2022-12-20T01:28:47;6.25;;;2.83;;
71629;SDS011;59479;51.902;8.212;2022-12-20T01:31:16;5.28;;;2.85;;
71629;SDS011;59479;51.902;8.212;2022-12-20T01:33:43;8.25;;;3.00;;
71629;SDS011;59479;51.902;8.212;2022-12-20T01:36:11;5.27;;;2.90;;
71629;SDS011;59479;51.902;8.212;2022-12-20T01:38:38;5.15;;;2.60;;
71629;SDS011;59479;51.902;8.212;2022-12-20T01:41:03;4.60;;;2.67;;
71629;SDS011;59479;51.902;8.212;2022-12-20T01:43:48;5.05;;;2.58;;
71629;SDS011;59479;51.902;8.212;2022-12-20T01:46:14;6.65;;;2.80;;
71629;SDS011;59479;51.902;8.212;2022-12-20T01:48:40;6.77;;;2.47;;
71629;SDS011;59479;51.902;8.212;2022-12-20T01:51:07;5.20;;;2.90;;
71629;SDS011;59479;51.902;8.212;2022-12-20T01:53:33;7.40;;;2.40;;
71629;SDS011;59479;51.902;8.212;2022-12-20T01:55:59;4.97;;;2.63;;
71629;SDS011;59479;51.902;8.212;2022-12-20T01:58:27;6.37;;;2.50;;
71629;SDS011;59479;51.902;8.212;2022-12-20T02:00:53;5.63;;;2.75;;
71629;SDS011;59479;51.902;8.212;2022-12-20T02:03:18;7.88;;;2.95;;
71629;SDS011;59479;51.902;8.212;2022-12-20T02:05:44;5.03;;;2.40;;
71629;SDS011;59479;51.902;8.212;2022-12-20T02:08:10;5.80;;;3.00;;
71629;SDS011;59479;51.902;8.212;2022-12-20T02:16:28;4.72;;;2.78;;
71629;SDS011;59479;51.902;8.212;2022-12-20T02:18:59;6.78;;;2.60;;
71629;SDS011;59479;51.902;8.212;2022-12-20T02:21:32;7.37;;;3.00;;
71629;SDS011;59479;51.902;8.212;2022-12-20T02:29:54;6.43;;;2.88;;
71629;SDS011;59479;51.902;8.212;2022-12-20T02:32:36;4.18;;;2.15;;
71629;SDS011;59479;51.902;8.212;2022-12-20T02:35:06;5.07;;;2.73;;
71629;SDS011;59479;51.902;8.212;2022-12-20T02:37:33;4.93;;;2.75;;
71629;SDS011;59479;51.902;8.212;2022-12-20T02:39:58;4.00;;;2.27;;
71629;SDS011;59479;51.902;8.212;2022-12-20T02:42:25;5.35;;;2.25;;
71629;SDS011;59479;51.902;8.212;2022-12-20T02:44:53;7.47;;;2.47;;
71629;SDS011;59479;51.902;8.212;2022-12-20T02:47:48;7.07;;;2.55;;
71629;SDS011;59479;51.902;8.212;2022-12-20T02:50:17;4.78;;;2.95;;
71629;SDS011;59479;51.902;8.212;2022-12-20T02:52:47;5.10;;;2.40;;
71629;SDS011;59479;51.902;8.212;2022-12-20T02:55:13;4.57;;;2.42;;
71629;SDS011;59479;51.902;8.212;2022-12-20T02:57:49;4.82;;;2.42;;
71629;SDS011;59479;51.902;8.212;2022-12-20T03:00:20;5.68;;;2.47;;
71629;SDS011;59479;51.902;8.212;2022-12-20T03:02:46;5.40;;;2.50;;
71629;SDS011;59479;51.902;8.212;2022-12-20T03:05:32;8.13;;;2.78;;
71629;SDS011;59479;51.902;8.212;2022-12-20T03:08:00;5.03;;;2.80;;
71629;SDS011;59479;51.902;8.212;2022-12-20T03:10:25;5.07;;;2.57;;
71629;SDS011;59479;51.902;8.212;2022-12-20T03:12:51;5.70;;;2.40;;
71629;SDS011;59479;51.902;8.212;2022-12-20T03:15:16;4.75;;;2.60;;
71629;SDS011;59479;51.902;8.212;2022-12-20T03:17:42;5.37;;;2.60;;
71629;SDS011;59479;51.902;8.212;2022-12-20T03:20:07;5.93;;;2.90;;
71629;SDS011;59479;51.902;8.212;2022-12-20T03:22:35;5.30;;;2.50;;
71629;SDS011;59479;51.902;8.212;2022-12-20T03:25:01;4.90;;;2.65;;
71629;SDS011;59479;51.902;8.212;2022-12-20T03:27:27;6.00;;;2.60;;
71629;SDS011;59479;51.902;8.212;2022-12-20T03:29:53;5.80;;;2.72;;
71629;SDS011;59479;51.902;8.212;2022-12-20T03:32:18;5.53;;;2.83;;
71629;SDS011;59479;51.902;8.212;2022-12-20T03:34:44;5.57;;;2.80;;
71629;SDS011;59479;51.902;8.212;2022-12-20T03:37:09;5.57;;;3.00;;
71629;SDS011;59479;51.902;8.212;2022-12-20T03:39:35;5.33;;;2.40;;
71629;SDS011;59479;51.902;8.212;2022-12-20T03:42:00;6.47;;;2.83;;
71629;SDS011;59479;51.902;8.212;2022-12-20T03:44:25;5.43;;;2.70;;
71629;SDS011;59479;51.902;8.212;2022-12-20T03:46:51;5.13;;;2.77;;
71629;SDS011;59479;51.902;8.212;2022-12-20T03:49:16;5.50;;;2.67;;
71629;SDS011;59479;51.902;8.212;2022-12-20T03:51:41;6.03;;;3.10;;
71629;SDS011;59479;51.902;8.212;2022-12-20T03:54:07;6.13;;;3.00;;
71629;SDS011;59479;51.902;8.212;2022-12-20T03:56:32;7.23;;;3.20;;
71629;SDS011;59479;51.902;8.212;2022-12-20T03:58:57;6.00;;;3.13;;
71629;SDS011;59479;51.902;8.212;2022-12-20T04:01:24;8.93;;;3.07;;
71629;SDS011;59479;51.902;8.212;2022-12-20T04:03:51;4.68;;;2.58;;
71629;SDS011;59479;51.902;8.212;2022-12-20T04:06:17;5.07;;;3.23;;
71629;SDS011;59479;51.902;8.212;2022-12-20T04:08:43;5.18;;;2.88;;
71629;SDS011;59479;51.902;8.212;2022-12-20T04:11:08;6.80;;;3.07;;
71629;SDS011;59479;51.902;8.212;2022-12-20T04:13:40;4.93;;;3.03;;
71629;SDS011;59479;51.902;8.212;2022-12-20T04:16:06;6.20;;;2.50;;
71629;SDS011;59479;51.902;8.212;2022-12-20T04:18:32;5.77;;;3.03;;
71629;SDS011;59479;51.902;8.212;2022-12-20T04:20:58;5.93;;;2.93;;
71629;SDS011;59479;51.902;8.212;2022-12-20T04:23:24;5.65;;;2.60;;
71629;SDS011;59479;51.902;8.212;2022-12-20T04:25:49;6.67;;;3.33;;
71629;SDS011;59479;51.902;8.212;2022-12-20T04:28:15;5.87;;;3.37;;
71629;SDS011;59479;51.902;8.212;2022-12-20T04:30:40;7.50;;;3.63;;
71629;SDS011;59479;51.902;8.212;2022-12-20T04:33:05;7.68;;;3.17;;
71629;SDS011;59479;51.902;8.212;2022-12-20T04:35:30;6.20;;;3.10;;
71629;SDS011;59479;51.902;8.212;2022-12-20T04:37:56;7.30;;;3.47;;
71629;SDS011;59479;51.902;8.212;2022-12-20T04:40:22;7.53;;;3.53;;
71629;SDS011;59479;51.902;8.212;2022-12-20T04:42:47;8.90;;;2.70;;
71629;SDS011;59479;51.902;8.212;2022-12-20T04:45:13;6.33;;;3.17;;
71629;SDS011;59479;51.902;8.212;2022-12-20T04:47:38;6.00;;;3.20;;
71629;SDS011;59479;51.902;8.212;2022-12-20T04:50:04;8.20;;;3.30;;
71629;SDS011;59479;51.902;8.212;2022-12-20T04:52:30;5.35;;;3.38;;
71629;SDS011;59479;51.902;8.212;2022-12-20T04:55:14;6.05;;;3.50;;
71629;SDS011;59479;51.902;8.212;2022-12-20T04:57:40;7.70;;;3.53;;
71629;SDS011;59479;51.902;8.212;2022-12-20T05:00:05;6.13;;;3.53;;
71629;SDS011;59479;51.902;8.212;2022-12-20T05:02:31;6.13;;;3.00;;
71629;SDS011;59479;51.902;8.212;2022-12-20T05:04:56;7.33;;;3.17;;
71629;SDS011;59479;51.902;8.212;2022-12-20T05:07:22;7.37;;;3.67;;
71629;SDS011;59479;51.902;8.212;2022-12-20T05:09:47;8.83;;;3.50;;
71629;SDS011;59479;51.902;8.212;2022-12-20T05:12:12;5.57;;;3.30;;
71629;SDS011;59479;51.902;8.212;2022-12-20T05:14:38;6.95;;;3.47;;
71629;SDS011;59479;51.902;8.212;2022-12-20T05:17:03;6.40;;;3.30;;
71629;SDS011;59479;51.902;8.212;2022-12-20T05:19:28;5.23;;;3.20;;
71629;SDS011;59479;51.902;8.212;2022-12-20T05:21:53;6.97;;;3.90;;
71629;SDS011;59479;51.902;8.212;2022-12-20T05:24:38;6.32;;;2.90;;
71629;SDS011;59479;51.902;8.212;2022-12-20T05:27:21;6.13;;;3.70;;
71629;SDS011;59479;51.902;8.212;2022-12-20T05:29:47;6.70;;;3.70;;
71629;SDS011;59479;51.902;8.212;2022-12-20T05:32:12;5.97;;;3.10;;
71629;SDS011;59479;51.902;8.212;2022-12-20T05:34:37;6.47;;;3.30;;
71629;SDS011;59479;51.902;8.212;2022-12-20T05:37:03;8.10;;;3.70;;
71629;SDS011;59479;51.902;8.212;2022-12-20T05:39:28;6.13;;;3.23;;
71629;SDS011;59479;51.902;8.212;2022-12-20T05:41:54;6.37;;;3.27;;
71629;SDS011;59479;51.902;8.212;2022-12-20T05:44:19;8.17;;;3.87;;
71629;SDS011;59479;51.902;8.212;2022-12-20T05:46:46;6.63;;;3.88;;
71629;SDS011;59479;51.902;8.212;2022-12-20T05:49:14;6.35;;;3.42;;
71629;SDS011;59479;51.902;8.212;2022-12-20T05:51:40;6.80;;;3.63;;
71629;SDS011;59479;51.902;8.212;2022-12-20T05:54:05;6.30;;;3.40;;
71629;SDS011;59479;51.902;8.212;2022-12-20T05:56:30;6.57;;;3.57;;
71629;SDS011;59479;51.902;8.212;2022-12-20T05:58:56;7.80;;;3.63;;
71629;SDS011;59479;51.902;8.212;2022-12-20T06:01:23;6.93;;;3.60;;
71629;SDS011;59479;51.902;8.212;2022-12-20T06:03:48;7.03;;;3.77;;
71629;SDS011;59479;51.902;8.212;2022-12-20T06:06:15;7.40;;;4.18;;
71629;SDS011;59479;51.902;8.212;2022-12-20T06:08:40;6.87;;;3.43;;
71629;SDS011;59479;51.902;8.212;2022-12-20T06:11:06;6.00;;;3.92;;
71629;SDS011;59479;51.902;8.212;2022-12-20T06:13:31;8.43;;;4.03;;
71629;SDS011;59479;51.902;8.212;2022-12-20T06:15:57;8.03;;;4.13;;
71629;SDS011;59479;51.902;8.212;2022-12-20T06:18:22;9.00;;;4.50;;
71629;SDS011;59479;51.902;8.212;2022-12-20T06:20:48;9.10;;;4.28;;
71629;SDS011;59479;51.902;8.212;2022-12-20T06:23:17;10.27;;;4.60;;
71629;SDS011;59479;51.902;8.212;2022-12-20T06:25:42;9.15;;;4.22;;
71629;SDS011;59479;51.902;8.212;2022-12-20T06:28:08;8.30;;;3.93;;
71629;SDS011;59479;51.902;8.212;2022-12-20T06:30:34;7.97;;;4.18;;
71629;SDS011;59479;51.902;8.212;2022-12-20T06:33:00;7.30;;;4.03;;
71629;SDS011;59479;51.902;8.212;2022-12-20T06:35:27;7.80;;;3.70;;
71629;SDS011;59479;51.902;8.212;2022-12-20T06:37:53;7.75;;;4.07;;
71629;SDS011;59479;51.902;8.212;2022-12-20T06:40:18;8.77;;;3.58;;
71629;SDS011;59479;51.902;8.212;2022-12-20T06:42:44;6.22;;;3.53;;
71629;SDS011;59479;51.902;8.212;2022-12-20T06:45:09;7.10;;;4.00;;
71629;SDS011;59479;51.902;8.212;2022-12-20T06:47:34;7.07;;;4.13;;
71629;SDS011;59479;51.902;8.212;2022-12-20T06:50:00;7.47;;;4.15;;
71629;SDS011;59479;51.902;8.212;2022-12-20T06:52:26;7.87;;;3.87;;
71629;SDS011;59479;51.902;8.212;2022-12-20T06:54:51;9.20;;;4.20;;
71629;SDS011;59479;51.902;8.212;2022-12-20T06:57:16;8.20;;;4.50;;
71629;SDS011;59479;51.902;8.212;2022-12-20T06:59:42;8.93;;;4.60;;
71629;SDS011;59479;51.902;8.212;2022-12-20T07:02:09;7.93;;;4.40;;
71629;SDS011;59479;51.902;8.212;2022-12-20T07:04:35;8.75;;;4.93;;
71629;SDS011;59479;51.902;8.212;2022-12-20T07:07:01;9.60;;;4.22;;
71629;SDS011;59479;51.902;8.212;2022-12-20T07:09:27;8.82;;;4.50;;
71629;SDS011;59479;51.902;8.212;2022-12-20T07:11:53;8.10;;;5.00;;
71629;SDS011;59479;51.902;8.212;2022-12-20T07:14:19;6.97;;;4.20;;
71629;SDS011;59479;51.902;8.212;2022-12-20T07:16:44;6.97;;;4.40;;
71629;SDS011;59479;51.902;8.212;2022-12-20T07:19:10;8.70;;;4.37;;
71629;SDS011;59479;51.902;8.212;2022-12-20T07:21:36;7.65;;;4.50;;
71629;SDS011;59479;51.902;8.212;2022-12-20T07:24:02;8.63;;;4.60;;
71629;SDS011;59479;51.902;8.212;2022-12-20T07:26:28;7.50;;;4.25;;
71629;SDS011;59479;51.902;8.212;2022-12-20T07:28:53;7.83;;;4.40;;
71629;SDS011;59479;51.902;8.212;2022-12-20T07:31:19;10.23;;;4.20;;
71629;SDS011;59479;51.902;8.212;2022-12-20T07:33:44;8.77;;;4.10;;
71629;SDS011;59479;51.902;8.212;2022-12-20T07:36:10;6.95;;;4.00;;
71629;SDS011;59479;51.902;8.212;2022-12-20T07:38:36;6.03;;;3.80;;
71629;SDS011;59479;51.902;8.212;2022-12-20T07:41:20;7.88;;;3.83;;
71629;SDS011;59479;51.902;8.212;2022-12-20T07:43:45;6.43;;;3.47;;
71629;SDS011;59479;51.902;8.212;2022-12-20T07:46:14;6.97;;;3.53;;
71629;SDS011;59479;51.902;8.212;2022-12-20T07:48:41;6.13;;;3.38;;
71629;SDS011;59479;51.902;8.212;2022-12-20T07:51:14;7.93;;;4.00;;
71629;SDS011;59479;51.902;8.212;2022-12-20T07:53:46;5.93;;;3.07;;
71629;SDS011;59479;51.902;8.212;2022-12-20T07:56:15;6.70;;;3.40;;
71629;SDS011;59479;51.902;8.212;2022-12-20T07:58:45;7.53;;;3.60;;
71629;SDS011;59479;51.902;8.212;2022-12-20T08:01:10;4.95;;;3.00;;
71629;SDS011;59479;51.902;8.212;2022-12-20T08:03:38;7.10;;;3.70;;
71629;SDS011;59479;51.902;8.212;2022-12-20T08:06:08;5.70;;;3.10;;
71629;SDS011;59479;51.902;8.212;2022-12-20T08:08:35;6.75;;;3.30;;
71629;SDS011;59479;51.902;8.212;2022-12-20T08:11:05;5.70;;;3.27;;
71629;SDS011;59479;51.902;8.212;2022-12-20T08:13:32;5.78;;;3.03;;
71629;SDS011;59479;51.902;8.212;2022-12-20T08:15:58;7.90;;;3.72;;
71629;SDS011;59479;51.902;8.212;2022-12-20T08:18:23;7.63;;;4.00;;
71629;SDS011;59479;51.902;8.212;2022-12-20T08:20:49;10.43;;;4.20;;
71629;SDS011;59479;51.902;8.212;2022-12-20T08:23:14;11.65;;;6.32;;
71629;SDS011;59479;51.902;8.212;2022-12-20T08:25:39;9.40;;;4.72;;
71629;SDS011;59479;51.902;8.212;2022-12-20T08:28:05;8.17;;;3.73;;
71629;SDS011;59479;51.902;8.212;2022-12-20T08:30:30;5.80;;;3.40;;
71629;SDS011;59479;51.902;8.212;2022-12-20T08:32:55;6.30;;;3.50;;
71629;SDS011;59479;51.902;8.212;2022-12-20T08:35:21;6.07;;;3.30;;
71629;SDS011;59479;51.902;8.212;2022-12-20T08:37:47;7.03;;;3.20;;
71629;SDS011;59479;51.902;8.212;2022-12-20T08:40:14;5.00;;;3.03;;
71629;SDS011;59479;51.902;8.212;2022-12-20T08:42:40;5.27;;;2.90;;
71629;SDS011;59479;51.902;8.212;2022-12-20T08:45:05;7.00;;;3.17;;
71629;SDS011;59479;51.902;8.212;2022-12-20T08:47:31;5.50;;;3.07;;
71629;SDS011;59479;51.902;8.212;2022-12-20T08:49:56;5.03;;;3.10;;
71629;SDS011;59479;51.902;8.212;2022-12-20T08:52:21;6.03;;;3.20;;
71629;SDS011;59479;51.902;8.212;2022-12-20T08:54:47;5.95;;;2.88;;
71629;SDS011;59479;51.902;8.212;2022-12-20T08:57:12;4.93;;;2.40;;
71629;SDS011;59479;51.902;8.212;2022-12-20T08:59:37;6.47;;;3.23;;
71629;SDS011;59479;51.902;8.212;2022-12-20T09:02:03;5.63;;;2.80;;
71629;SDS011;59479;51.902;8.212;2022-12-20T09:04:28;4.60;;;2.93;;
71629;SDS011;59479;51.902;8.212;2022-12-20T09:06:54;5.35;;;3.15;;
71629;SDS011;59479;51.902;8.212;2022-12-20T09:09:19;6.22;;;3.20;;
71629;SDS011;59479;51.902;8.212;2022-12-20T09:11:44;4.83;;;2.50;;
71629;SDS011;59479;51.902;8.212;2022-12-20T09:14:10;5.80;;;3.43;;
71629;SDS011;59479;51.902;8.212;2022-12-20T09:16:35;4.30;;;2.43;;
71629;SDS011;59479;51.902;8.212;2022-12-20T09:19:01;6.27;;;2.67;;
71629;SDS011;59479;51.902;8.212;2022-12-20T09:21:27;5.68;;;3.17;;
71629;SDS011;59479;51.902;8.212;2022-12-20T09:23:53;6.50;;;2.70;;
71629;SDS011;59479;51.902;8.212;2022-12-20T09:26:20;6.15;;;3.60;;
71629;SDS011;59479;51.902;8.212;2022-12-20T09:28:47;5.75;;;3.03;;
71629;SDS011;59479;51.902;8.212;2022-12-20T09:31:15;5.57;;;3.10;;
71629;SDS011;59479;51.902;8.212;2022-12-20T09:33:42;6.60;;;3.17;;
71629;SDS011;59479;51.902;8.212;2022-12-20T09:36:12;5.28;;;3.33;;
71629;SDS011;59479;51.902;8.212;2022-12-20T09:38:39;6.15;;;3.03;;
71629;SDS011;59479;51.902;8.212;2022-12-20T09:41:05;5.97;;;3.17;;
71629;SDS011;59479;51.902;8.212;2022-12-20T09:43:32;6.10;;;3.53;;
71629;SDS011;59479;51.902;8.212;2022-12-20T09:45:59;6.05;;;2.90;;
71629;SDS011;59479;51.902;8.212;2022-12-20T09:48:36;5.70;;;3.33;;
71629;SDS011;59479;51.902;8.212;2022-12-20T09:56:27;5.47;;;2.70;;
71629;SDS011;59479;51.902;8.212;2022-12-20T09:59:00;5.57;;;2.72;;
71629;SDS011;59479;51.902;8.212;2022-12-20T10:01:32;5.97;;;2.92;;
71629;SDS011;59479;51.902;8.212;2022-12-20T10:04:01;6.43;;;2.92;;
71629;SDS011;59479;51.902;8.212;2022-12-20T10:17:53;5.50;;;2.40;;
71629;SDS011;59479;51.902;8.212;2022-12-20T10:25:53;4.60;;;2.53;;
71629;SDS011;59479;51.902;8.212;2022-12-20T10:28:25;6.03;;;2.97;;
71629;SDS011;59479;51.902;8.212;2022-12-20T10:30:55;5.15;;;2.60;;
71629;SDS011;59479;51.902;8.212;2022-12-20T10:33:23;7.93;;;3.07;;
71629;SDS011;59479;51.902;8.212;2022-12-20T10:35:50;6.07;;;2.65;;
71629;SDS011;59479;51.902;8.212;2022-12-20T10:38:16;4.03;;;2.55;;
71629;SDS011;59479;51.902;8.212;2022-12-20T10:43:26;5.38;;;2.80;;
71629;SDS011;59479;51.902;8.212;2022-12-20T10:46:01;5.00;;;2.40;;
71629;SDS011;59479;51.902;8.212;2022-12-20T10:48:31;6.18;;;2.55;;
71629;SDS011;59479;51.902;8.212;2022-12-20T10:50:58;4.65;;;2.30;;
71629;SDS011;59479;51.902;8.212;2022-12-20T10:53:33;5.80;;;2.70;;
71629;SDS011;59479;51.902;8.212;2022-12-20T10:56:17;4.88;;;2.58;;
71629;SDS011;59479;51.902;8.212;2022-12-20T10:58:54;7.27;;;2.60;;
71629;SDS011;59479;51.902;8.212;2022-12-20T11:01:28;5.32;;;2.47;;
71629;SDS011;59479;51.902;8.212;2022-12-20T11:03:59;6.05;;;2.50;;
71629;SDS011;59479;51.902;8.212;2022-12-20T11:06:28;5.53;;;2.65;;
71629;SDS011;59479;51.902;8.212;2022-12-20T11:12:15;5.90;;;3.33;;
71629;SDS011;59479;51.902;8.212;2022-12-20T11:14:44;6.40;;;2.67;;
71629;SDS011;59479;51.902;8.212;2022-12-20T11:27:42;7.57;;;2.67;;
71629;SDS011;59479;51.902;8.212;2022-12-20T11:32:58;5.30;;;2.65;;
71629;SDS011;59479;51.902;8.212;2022-12-20T11:35:41;7.95;;;2.83;;
71629;SDS011;59479;51.902;8.212;2022-12-20T11:43:53;5.75;;;2.60;;
71629;SDS011;59479;51.902;8.212;2022-12-20T11:49:27;5.53;;;2.63;;
71629;SDS011;59479;51.902;8.212;2022-12-20T11:52:03;4.88;;;2.55;;
71629;SDS011;59479;51.902;8.212;2022-12-20T11:54:35;5.03;;;2.50;;
71629;SDS011;59479;51.902;8.212;2022-12-20T11:57:09;5.85;;;2.53;;
71629;SDS011;59479;51.902;8.212;2022-12-20T11:59:44;4.55;;;2.70;;
71629;SDS011;59479;51.902;8.212;2022-12-20T12:05:06;9.95;;;2.65;;
71629;SDS011;59479;51.902;8.212;2022-12-20T12:07:43;8.07;;;2.53;;
71629;SDS011;59479;51.902;8.212;2022-12-20T12:10:16;6.40;;;2.83;;
71629;SDS011;59479;51.902;8.212;2022-12-20T12:12:46;7.18;;;2.70;;
71629;SDS011;59479;51.902;8.212;2022-12-20T12:18:20;5.35;;;2.55;;
71629;SDS011;59479;51.902;8.212;2022-12-20T12:20:52;4.63;;;2.63;;
71629;SDS011;59479;51.902;8.212;2022-12-20T12:26:16;4.85;;;2.60;;
71629;SDS011;59479;51.902;8.212;2022-12-20T12:28:46;5.60;;;2.60;;
71629;SDS011;59479;51.902;8.212;2022-12-20T12:31:17;4.40;;;2.53;;
71629;SDS011;59479;51.902;8.212;2022-12-20T12:33:59;4.90;;;2.20;;
71629;SDS011;59479;51.902;8.212;2022-12-20T12:36:36;5.25;;;2.65;;
71629;SDS011;59479;51.902;8.212;2022-12-20T12:44:49;3.95;;;2.25;;
71629;SDS011;59479;51.902;8.212;2022-12-20T12:47:23;4.03;;;2.53;;
71629;SDS011;59479;51.902;8.212;2022-12-20T12:49:59;5.30;;;2.28;;
71629;SDS011;59479;51.902;8.212;2022-12-20T12:52:28;7.00;;;2.50;;
71629;SDS011;59479;51.902;8.212;2022-12-20T12:54:59;5.25;;;2.40;;
71629;SDS011;59479;51.902;8.212;2022-12-20T12:57:24;5.93;;;2.80;;
71629;SDS011;59479;51.902;8.212;2022-12-20T12:59:50;5.23;;;2.70;;
71629;SDS011;59479;51.902;8.212;2022-12-20T13:05:42;6.90;;;3.00;;
71629;SDS011;59479;51.902;8.212;2022-12-20T13:12:46;5.77;;;2.33;;
71629;SDS011;59479;51.902;8.212;2022-12-20T13:25:38;7.70;;;2.40;;
71629;SDS011;59479;51.902;8.212;2022-12-20T13:31:33;4.95;;;2.50;;
71629;SDS011;59479;51.902;8.212;2022-12-20T13:33:40;5.20;;;2.42;;
71629;SDS011;59479;51.902;8.212;2022-12-20T13:41:27;6.18;;;2.70;;
71629;SDS011;59479;51.902;8.212;2022-12-20T13:44:18;6.43;;;2.72;;
71629;SDS011;59479;51.902;8.212;2022-12-20T13:46:47;6.18;;;2.65;;
71629;SDS011;59479;51.902;8.212;2022-12-20T13:51:48;5.87;;;2.43;;
71629;SDS011;59479;51.902;8.212;2022-12-20T13:54:30;7.38;;;3.40;;
71629;SDS011;59479;51.902;8.212;2022-12-20T13:56:57;6.45;;;2.72;;
71629;SDS011;59479;51.902;8.212;2022-12-20T13:59:24;5.13;;;2.70;;
71629;SDS011;59479;51.902;8.212;2022-12-20T14:01:59;6.22;;;3.08;;
71629;SDS011;59479;51.902;8.212;2022-12-20T14:04:38;4.60;;;2.20;;
71629;SDS011;59479;51.902;8.212;2022-12-20T14:07:07;4.57;;;2.38;;
71629;SDS011;59479;51.902;8.212;2022-12-20T14:09:37;4.65;;;2.42;;
71629;SDS011;59479;51.902;8.212;2022-12-20T14:12:10;8.10;;;2.63;;
71629;SDS011;59479;51.902;8.212;2022-12-20T14:14:41;5.83;;;2.53;;
71629;SDS011;59479;51.902;8.212;2022-12-20T14:22:40;7.07;;;3.15;;
71629;SDS011;59479;51.902;8.212;2022-12-20T14:25:18;5.50;;;2.95;;
71629;SDS011;59479;51.902;8.212;2022-12-20T14:27:51;5.70;;;2.87;;
71629;SDS011;59479;51.902;8.212;2022-12-20T14:30:27;6.35;;;3.20;;
71629;SDS011;59479;51.902;8.212;2022-12-20T14:32:55;5.17;;;3.30;;
71629;SDS011;59479;51.902;8.212;2022-12-20T14:35:22;5.43;;;2.90;;
71629;SDS011;59479;51.902;8.212;2022-12-20T14:37:51;7.20;;;3.22;;
71629;SDS011;59479;51.902;8.212;2022-12-20T14:40:21;7.03;;;3.53;;
71629;SDS011;59479;51.902;8.212;2022-12-20T14:42:51;8.33;;;4.17;;
71629;SDS011;59479;51.902;8.212;2022-12-20T14:45:20;7.80;;;4.25;;
71629;SDS011;59479;51.902;8.212;2022-12-20T14:47:49;8.27;;;3.80;;
71629;SDS011;59479;51.902;8.212;2022-12-20T14:50:21;5.80;;;3.23;;
71629;SDS011;59479;51.902;8.212;2022-12-20T14:52:55;6.55;;;3.40;;
71629;SDS011;59479;51.902;8.212;2022-12-20T14:55:22;5.93;;;3.63;;
71629;SDS011;59479;51.902;8.212;2022-12-20T14:57:52;6.85;;;3.72;;
71629;SDS011;59479;51.902;8.212;2022-12-20T15:00:26;5.68;;;3.45;;
71629;SDS011;59479;51.902;8.212;2022-12-20T15:13:19;6.57;;;3.50;;
71629;SDS011;59479;51.902;8.212;2022-12-20T15:16:00;6.15;;;3.00;;
71629;SDS011;59479;51.902;8.212;2022-12-20T15:18:28;5.27;;;2.90;;
71629;SDS011;59479;51.902;8.212;2022-12-20T15:21:00;6.68;;;3.72;;
71629;SDS011;59479;51.902;8.212;2022-12-20T15:23:29;5.77;;;3.07;;
71629;SDS011;59479;51.902;8.212;2022-12-20T15:25:54;4.90;;;3.08;;
71629;SDS011;59479;51.902;8.212;2022-12-20T15:28:21;6.70;;;2.70;;
71629;SDS011;59479;51.902;8.212;2022-12-20T15:30:48;7.70;;;3.08;;
71629;SDS011;59479;51.902;8.212;2022-12-20T15:33:25;6.18;;;3.20;;
71629;SDS011;59479;51.902;8.212;2022-12-20T15:35:52;5.07;;;2.80;;
71629;SDS011;59479;51.902;8.212;2022-12-20T15:38:20;5.17;;;3.00;;
71629;SDS011;59479;51.902;8.212;2022-12-20T15:40:48;8.95;;;3.00;;
71629;SDS011;59479;51.902;8.212;2022-12-20T15:43:17;5.53;;;2.47;;
71629;SDS011;59479;51.902;8.212;2022-12-20T15:45:44;6.37;;;2.83;;
71629;SDS011;59479;51.902;8.212;2022-12-20T15:48:13;5.97;;;2.75;;
71629;SDS011;59479;51.902;8.212;2022-12-20T15:50:41;6.85;;;3.38;;
71629;SDS011;59479;51.902;8.212;2022-12-20T15:53:13;7.40;;;3.90;;
71629;SDS011;59479;51.902;8.212;2022-12-20T15:55:57;6.20;;;3.53;;
71629;SDS011;59479;51.902;8.212;2022-12-20T15:58:23;7.90;;;3.97;;
71629;SDS011;59479;51.902;8.212;2022-12-20T16:00:50;6.22;;;3.70;;
71629;SDS011;59479;51.902;8.212;2022-12-20T16:03:19;6.68;;;3.20;;
71629;SDS011;59479;51.902;8.212;2022-12-20T16:05:47;4.70;;;2.92;;
71629;SDS011;59479;51.902;8.212;2022-12-20T16:08:13;5.35;;;2.97;;
71629;SDS011;59479;51.902;8.212;2022-12-20T16:10:38;5.57;;;2.57;;
71629;SDS011;59479;51.902;8.212;2022-12-20T16:13:04;4.60;;;2.75;;
71629;SDS011;59479;51.902;8.212;2022-12-20T16:15:31;7.07;;;3.23;;
71629;SDS011;59479;51.902;8.212;2022-12-20T16:17:57;6.82;;;3.53;;
71629;SDS011;59479;51.902;8.212;2022-12-20T16:20:22;6.67;;;3.20;;
71629;SDS011;59479;51.902;8.212;2022-12-20T16:22:48;6.60;;;4.20;;
71629;SDS011;59479;51.902;8.212;2022-12-20T16:25:23;9.23;;;5.00;;
71629;SDS011;59479;51.902;8.212;2022-12-20T16:27:49;10.18;;;5.47;;
71629;SDS011;59479;51.902;8.212;2022-12-20T16:30:15;9.33;;;5.30;;
71629;SDS011;59479;51.902;8.212;2022-12-20T16:32:40;13.38;;;5.15;;
71629;SDS011;59479;51.902;8.212;2022-12-20T16:35:08;8.57;;;4.97;;
71629;SDS011;59479;51.902;8.212;2022-12-20T16:37:51;14.07;;;7.23;;
71629;SDS011;59479;51.902;8.212;2022-12-20T16:40:17;11.38;;;5.93;;
71629;SDS011;59479;51.902;8.212;2022-12-20T16:42:43;11.88;;;5.97;;
71629;SDS011;59479;51.902;8.212;2022-12-20T16:45:19;10.57;;;4.90;;
71629;SDS011;59479;51.902;8.212;2022-12-20T16:47:47;8.18;;;4.57;;
71629;SDS011;59479;51.902;8.212;2022-12-20T16:50:13;7.20;;;4.50;;
71629;SDS011;59479;51.902;8.212;2022-12-20T16:52:39;8.63;;;4.45;;
71629;SDS011;59479;51.902;8.212;2022-12-20T16:55:04;8.10;;;3.97;;